createdAt,value
2022-10-28T00:00:08.948Z,16.75
2022-10-28T00:01:09.043Z,16.75
2022-10-28T00:02:08.998Z,16.66
2022-10-28T00:03:09.023Z,16.68
2022-10-28T00:04:08.980Z,16.64
2022-10-28T00:05:09.006Z,16.65
2022-10-28T00:06:08.997Z,16.61
2022-10-28T00:07:09.006Z,16.61
2022-10-28T00:08:09.010Z,16.57
2022-10-28T00:09:12.075Z,16.56
2022-10-28T00:10:09.020Z,16.54
2022-10-28T00:11:09.042Z,16.51
2022-10-28T00:12:09.039Z,16.51
2022-10-28T00:13:09.045Z,16.53
2022-10-28T00:14:09.051Z,16.53
2022-10-28T00:15:09.073Z,16.51
2022-10-28T00:16:09.077Z,16.54
2022-10-28T00:17:09.076Z,16.51
2022-10-28T00:18:09.084Z,16.46
2022-10-28T00:19:09.098Z,16.46
2022-10-28T00:20:09.107Z,16.39
2022-10-28T00:21:09.133Z,16.49
2022-10-28T00:22:09.125Z,16.42
2022-10-28T00:23:09.132Z,16.36
2022-10-28T00:24:09.139Z,16.46
2022-10-28T00:25:09.137Z,16.36
2022-10-28T00:26:09.155Z,16.42
2022-10-28T00:27:09.162Z,16.42
2022-10-28T00:28:09.162Z,16.38
2022-10-28T00:29:09.169Z,16.36
2022-10-28T00:30:09.186Z,16.47
2022-10-28T00:31:09.187Z,16.42
2022-10-28T00:32:09.199Z,16.39
2022-10-28T00:33:09.202Z,16.42
2022-10-28T00:34:09.215Z,16.42
2022-10-28T00:35:09.221Z,16.41
2022-10-28T00:36:09.225Z,16.36
2022-10-28T00:37:09.255Z,16.49
2022-10-28T00:38:09.247Z,16.41
2022-10-28T00:39:09.250Z,16.36
2022-10-28T00:40:09.262Z,16.31
2022-10-28T00:41:09.265Z,16.41
2022-10-28T00:42:09.278Z,16.36
2022-10-28T00:43:09.288Z,16.42
2022-10-28T00:44:09.293Z,16.42
2022-10-28T00:45:09.303Z,16.36
2022-10-28T00:46:09.310Z,16.39
2022-10-28T00:47:09.312Z,16.43
2022-10-28T00:48:09.318Z,16.33
2022-10-28T00:49:09.335Z,16.39
2022-10-28T00:50:09.335Z,16.36
2022-10-28T00:51:09.349Z,16.33
2022-10-28T00:52:09.358Z,16.43
2022-10-28T00:53:09.383Z,16.36
2022-10-28T00:54:09.374Z,16.38
2022-10-28T00:55:09.372Z,16.42
2022-10-28T00:56:09.383Z,16.33
2022-10-28T00:57:09.396Z,16.32
2022-10-28T00:58:09.407Z,16.43
2022-10-28T00:59:09.405Z,16.42
2022-10-28T01:00:09.412Z,16.38
2022-10-28T01:01:09.445Z,16.42
2022-10-28T01:02:09.560Z,16.46
2022-10-28T01:03:09.446Z,16.46
2022-10-28T01:04:09.451Z,16.46
2022-10-28T01:05:09.452Z,16.47
2022-10-28T01:06:09.460Z,16.41
2022-10-28T01:07:09.475Z,16.36
2022-10-28T01:08:09.481Z,16.41
2022-10-28T01:09:10.321Z,16.36
2022-10-28T01:10:09.497Z,16.33
2022-10-28T01:11:09.509Z,16.33
2022-10-28T01:12:09.512Z,16.35
2022-10-28T01:13:09.522Z,16.38
2022-10-28T01:14:09.521Z,16.33
2022-10-28T01:15:09.530Z,16.29
2022-10-28T01:16:09.544Z,16.36
2022-10-28T01:17:09.546Z,16.31
2022-10-28T01:18:09.552Z,16.28
2022-10-28T01:19:09.562Z,16.29
2022-10-28T01:20:12.197Z,16.35
2022-10-28T01:21:09.578Z,16.35
2022-10-28T01:22:09.584Z,16.21
2022-10-28T01:23:09.594Z,16.33
2022-10-28T01:24:09.608Z,16.23
2022-10-28T01:25:09.635Z,16.23
2022-10-28T01:26:09.617Z,16.29
2022-10-28T01:27:09.824Z,16.23
2022-10-28T01:28:09.638Z,16.17
2022-10-28T01:29:09.637Z,16.31
2022-10-28T01:30:09.647Z,16.20
2022-10-28T01:31:09.660Z,16.16
2022-10-28T01:32:09.669Z,16.21
2022-10-28T01:33:09.676Z,16.20
2022-10-28T01:34:09.685Z,16.17
2022-10-28T01:35:09.683Z,16.17
2022-10-28T01:36:09.701Z,16.17
2022-10-28T01:37:09.699Z,16.28
2022-10-28T01:38:09.709Z,16.15
2022-10-28T01:39:09.716Z,16.16
2022-10-28T01:40:09.723Z,16.13
2022-10-28T01:41:09.754Z,16.12
2022-10-28T01:42:09.746Z,16.21
2022-10-28T01:43:09.748Z,16.28
2022-10-28T01:44:09.760Z,16.15
2022-10-28T01:45:09.763Z,16.24
2022-10-28T01:46:09.771Z,16.20
2022-10-28T01:47:10.790Z,16.20
2022-10-28T01:48:09.784Z,16.23
2022-10-28T01:49:09.793Z,16.17
2022-10-28T01:50:09.801Z,16.09
2022-10-28T01:51:09.813Z,16.15
2022-10-28T01:52:09.814Z,16.20
2022-10-28T01:53:09.823Z,16.13
2022-10-28T01:54:09.837Z,16.09
2022-10-28T01:55:09.846Z,16.13
2022-10-28T01:56:09.852Z,16.08
2022-10-28T01:57:09.878Z,16.12
2022-10-28T01:58:09.862Z,16.12
2022-10-28T01:59:09.868Z,16.13
2022-10-28T02:00:09.883Z,16.17
2022-10-28T02:01:10.046Z,16.15
2022-10-28T02:02:09.902Z,16.10
2022-10-28T02:03:10.102Z,16.10
2022-10-28T02:04:09.907Z,16.13
2022-10-28T02:05:09.915Z,16.05
2022-10-28T02:06:09.923Z,16.09
2022-10-28T02:07:09.936Z,16.08
2022-10-28T02:08:09.945Z,16.09
2022-10-28T02:09:09.952Z,16.10
2022-10-28T02:11:09.960Z,16.08
2022-10-28T02:12:09.967Z,16.04
2022-10-28T02:13:10.002Z,16.04
2022-10-28T02:14:09.983Z,16.05
2022-10-28T02:15:09.994Z,16.05
2022-10-28T02:16:09.999Z,16.09
2022-10-28T02:17:10.011Z,16.04
2022-10-28T02:18:10.013Z,16.17
2022-10-28T02:19:10.022Z,16.15
2022-10-28T02:20:10.036Z,16.20
2022-10-28T02:21:10.044Z,16.20
2022-10-28T02:22:10.049Z,16.10
2022-10-28T02:23:10.060Z,16.10
2022-10-28T02:24:10.057Z,16.15
2022-10-28T02:25:10.066Z,16.16
2022-10-28T02:26:10.073Z,16.20
2022-10-28T02:27:10.082Z,16.28
2022-10-28T02:29:10.211Z,16.26
2022-10-28T02:30:10.111Z,16.31
2022-10-28T02:31:10.119Z,16.31
2022-10-28T02:32:10.118Z,16.23
2022-10-28T02:33:10.132Z,16.28
2022-10-28T02:34:10.142Z,16.29
2022-10-28T02:35:10.142Z,16.28
2022-10-28T02:36:10.157Z,16.29
2022-10-28T02:37:10.155Z,16.26
2022-10-28T02:38:10.175Z,16.21
2022-10-28T02:39:10.180Z,16.26
2022-10-28T02:40:10.187Z,16.28
2022-10-28T02:41:10.194Z,16.21
2022-10-28T02:42:10.197Z,16.31
2022-10-28T02:43:10.212Z,16.26
2022-10-28T02:44:10.210Z,16.32
2022-10-28T02:46:10.251Z,16.28
2022-10-28T02:47:10.238Z,16.26
2022-10-28T02:48:10.240Z,16.23
2022-10-28T02:49:10.249Z,16.21
2022-10-28T02:50:10.266Z,16.28
2022-10-28T02:51:10.272Z,16.23
2022-10-28T02:52:10.273Z,16.26
2022-10-28T02:53:10.287Z,16.17
2022-10-28T02:54:10.295Z,16.20
2022-10-28T02:55:10.295Z,16.24
2022-10-28T02:56:10.304Z,16.26
2022-10-28T02:57:10.312Z,16.17
2022-10-28T02:58:10.321Z,16.24
2022-10-28T02:59:10.333Z,16.13
2022-10-28T03:00:10.334Z,16.17
2022-10-28T03:01:10.580Z,16.21
2022-10-28T03:02:10.445Z,16.23
2022-10-28T03:03:10.364Z,16.16
2022-10-28T03:04:10.373Z,16.17
2022-10-28T03:05:10.380Z,16.12
2022-10-28T03:06:10.381Z,16.17
2022-10-28T03:07:10.394Z,16.12
2022-10-28T03:08:10.396Z,16.00
2022-10-28T03:09:10.412Z,16.08
2022-10-28T03:10:10.418Z,16.04
2022-10-28T03:11:10.420Z,16.05
2022-10-28T03:12:10.434Z,16.05
2022-10-28T03:13:10.645Z,16.10
2022-10-28T03:14:13.207Z,16.02
2022-10-28T03:15:10.451Z,16.00
2022-10-28T03:16:10.458Z,16.01
2022-10-28T03:17:10.474Z,16.04
2022-10-28T03:18:10.501Z,16.12
2022-10-28T03:19:10.491Z,16.13
2022-10-28T03:20:10.486Z,16.16
2022-10-28T03:21:10.508Z,16.10
2022-10-28T03:22:10.510Z,16.15
2022-10-28T03:23:10.714Z,16.08
2022-10-28T03:24:10.519Z,16.17
2022-10-28T03:25:10.535Z,16.13
2022-10-28T03:26:11.952Z,16.09
2022-10-28T03:27:10.542Z,16.05
2022-10-28T03:28:10.558Z,16.04
2022-10-28T03:29:10.557Z,16.02
2022-10-28T03:30:10.578Z,16.05
2022-10-28T03:31:10.580Z,16.02
2022-10-28T03:32:10.630Z,15.91
2022-10-28T03:33:10.588Z,16.05
2022-10-28T03:34:10.625Z,16.04
2022-10-28T03:35:10.603Z,16.04
2022-10-28T03:36:10.619Z,16.01
2022-10-28T03:37:10.618Z,15.97
2022-10-28T03:38:10.627Z,15.94
2022-10-28T03:39:10.635Z,15.95
2022-10-28T03:40:10.642Z,15.94
2022-10-28T03:41:10.649Z,15.94
2022-10-28T03:42:10.657Z,15.86
2022-10-28T03:43:10.673Z,15.97
2022-10-28T03:44:10.678Z,15.86
2022-10-28T03:45:10.696Z,15.83
2022-10-28T03:46:10.695Z,15.83
2022-10-28T03:47:10.707Z,15.82
2022-10-28T03:48:10.708Z,15.73
2022-10-28T03:49:10.711Z,15.83
2022-10-28T03:50:10.738Z,15.80
2022-10-28T03:51:10.735Z,15.73
2022-10-28T03:52:10.742Z,15.67
2022-10-28T03:53:10.742Z,15.68
2022-10-28T03:54:10.750Z,15.70
2022-10-28T03:55:10.756Z,15.58
2022-10-28T03:56:10.770Z,15.57
2022-10-28T03:57:10.770Z,15.55
2022-10-28T03:58:10.787Z,15.62
2022-10-28T03:59:11.229Z,15.62
2022-10-28T04:00:10.802Z,15.62
2022-10-28T04:01:10.945Z,15.65
2022-10-28T04:02:10.984Z,15.57
2022-10-28T04:03:10.817Z,15.59
2022-10-28T04:04:10.831Z,15.57
2022-10-28T04:05:10.838Z,15.61
2022-10-28T04:06:10.867Z,15.61
2022-10-28T04:07:10.847Z,15.67
2022-10-28T04:08:10.864Z,15.62
2022-10-28T04:09:10.862Z,15.55
2022-10-28T04:10:10.875Z,15.58
2022-10-28T04:11:10.883Z,15.68
2022-10-28T04:12:10.891Z,15.65
2022-10-28T04:13:10.899Z,15.59
2022-10-28T04:14:10.898Z,15.64
2022-10-28T04:15:10.914Z,15.57
2022-10-28T04:16:13.535Z,15.57
2022-10-28T04:17:11.130Z,15.65
2022-10-28T04:18:10.930Z,15.57
2022-10-28T04:19:10.943Z,15.62
2022-10-28T04:20:10.943Z,15.72
2022-10-28T04:21:10.951Z,15.65
2022-10-28T04:22:10.981Z,15.64
2022-10-28T04:23:10.966Z,15.61
2022-10-28T04:24:10.981Z,15.68
2022-10-28T04:25:11.014Z,15.70
2022-10-28T04:26:10.989Z,15.64
2022-10-28T04:27:11.002Z,15.65
2022-10-28T04:28:11.004Z,15.67
2022-10-28T04:29:11.010Z,15.70
2022-10-28T04:30:11.019Z,15.67
2022-10-28T04:31:11.027Z,15.73
2022-10-28T04:32:11.034Z,15.58
2022-10-28T04:33:11.041Z,15.59
2022-10-28T04:34:11.055Z,15.64
2022-10-28T04:35:11.057Z,15.68
2022-10-28T04:36:11.071Z,15.65
2022-10-28T04:37:11.072Z,15.58
2022-10-28T04:38:11.125Z,15.65
2022-10-28T04:39:11.095Z,15.61
2022-10-28T04:40:11.092Z,15.58
2022-10-28T04:41:11.102Z,15.58
2022-10-28T04:42:11.108Z,15.58
2022-10-28T04:43:11.118Z,15.55
2022-10-28T04:44:11.123Z,15.59
2022-10-28T04:45:11.138Z,15.64
2022-10-28T04:46:11.144Z,15.57
2022-10-28T04:47:11.147Z,15.57
2022-10-28T04:48:11.160Z,15.55
2022-10-28T04:49:11.168Z,15.57
2022-10-28T04:50:11.168Z,15.57
2022-10-28T04:51:11.182Z,15.59
2022-10-28T04:52:14.792Z,15.57
2022-10-28T04:53:11.197Z,15.65
2022-10-28T04:54:11.226Z,15.59
2022-10-28T04:55:11.205Z,15.65
2022-10-28T04:56:11.215Z,15.57
2022-10-28T04:57:11.220Z,15.59
2022-10-28T04:58:11.239Z,15.55
2022-10-28T04:59:11.242Z,15.65
2022-10-28T05:00:11.249Z,15.73
2022-10-28T05:01:11.368Z,15.58
2022-10-28T05:02:11.382Z,15.55
2022-10-28T05:03:11.265Z,15.73
2022-10-28T05:04:11.280Z,15.65
2022-10-28T05:05:11.303Z,15.73
2022-10-28T05:06:11.296Z,15.76
2022-10-28T05:07:11.295Z,15.75
2022-10-28T05:08:11.313Z,15.77
2022-10-28T05:09:11.310Z,15.68
2022-10-28T05:10:11.342Z,15.59
2022-10-28T05:11:11.334Z,15.62
2022-10-28T05:12:11.338Z,15.62
2022-10-28T05:13:11.341Z,15.64
2022-10-28T05:14:11.352Z,15.68
2022-10-28T05:15:11.365Z,15.64
2022-10-28T05:16:13.986Z,15.68
2022-10-28T05:17:11.379Z,15.72
2022-10-28T05:18:11.378Z,15.73
2022-10-28T05:19:11.393Z,15.77
2022-10-28T05:20:11.400Z,15.77
2022-10-28T05:21:11.397Z,15.75
2022-10-28T05:22:11.407Z,15.76
2022-10-28T05:23:12.837Z,15.75
2022-10-28T05:24:11.438Z,15.79
2022-10-28T05:25:11.437Z,15.70
2022-10-28T05:26:11.458Z,15.68
2022-10-28T05:27:11.445Z,15.77
2022-10-28T05:28:59.012Z,15.77
2022-10-28T05:30:51.581Z,15.76
2022-10-28T05:31:51.617Z,15.76
2022-10-28T05:32:54.450Z,15.73
2022-10-28T05:33:51.602Z,15.79
2022-10-28T05:34:51.616Z,15.75
2022-10-28T05:35:51.624Z,15.76
2022-10-28T05:36:51.626Z,15.77
2022-10-28T05:37:52.440Z,15.82
2022-10-28T05:38:51.641Z,15.80
2022-10-28T05:39:51.639Z,15.83
2022-10-28T05:40:51.648Z,15.86
2022-10-28T05:41:51.755Z,15.80
2022-10-28T05:42:52.024Z,15.84
2022-10-28T05:43:51.675Z,15.84
2022-10-28T05:44:52.899Z,15.86
2022-10-28T05:45:51.691Z,15.80
2022-10-28T05:46:51.692Z,15.92
2022-10-28T05:47:51.870Z,15.86
2022-10-28T05:52:42.650Z,15.83
2022-10-28T05:53:42.655Z,15.83
2022-10-28T05:56:27.797Z,15.84
2022-10-28T05:57:27.824Z,15.90
2022-10-28T05:59:10.352Z,15.90
2022-10-28T06:00:10.350Z,15.83
2022-10-28T06:01:10.461Z,15.84
2022-10-28T06:02:10.365Z,15.83
2022-10-28T06:03:10.383Z,15.88
2022-10-28T06:04:10.507Z,15.84
2022-10-28T06:05:10.396Z,15.90
2022-10-28T06:11:15.594Z,15.84
2022-10-28T06:12:15.605Z,15.82
2022-10-28T06:13:15.637Z,15.83
2022-10-28T06:14:15.617Z,15.77
2022-10-28T06:15:15.636Z,15.77
2022-10-28T06:16:15.630Z,15.77
2022-10-28T06:17:15.640Z,15.73
2022-10-28T06:18:18.169Z,15.73
2022-10-28T06:19:15.655Z,15.75
2022-10-28T06:20:15.661Z,15.76
2022-10-28T06:21:15.671Z,15.76
2022-10-28T06:22:15.887Z,15.73
2022-10-28T06:23:15.695Z,15.83
2022-10-28T06:24:15.700Z,15.76
2022-10-28T06:25:15.702Z,15.75
2022-10-28T06:26:15.717Z,15.80
2022-10-28T06:27:15.726Z,15.77
2022-10-28T06:28:15.725Z,15.84
2022-10-28T06:29:15.763Z,15.84
2022-10-28T06:30:15.742Z,15.88
2022-10-28T06:31:15.761Z,15.88
2022-10-28T06:32:15.770Z,15.86
2022-10-28T06:39:28.293Z,15.92
2022-10-28T06:46:25.799Z,16.01
2022-10-28T06:48:59.944Z,16.12
2022-10-28T06:49:59.953Z,16.05
2022-10-28T06:50:59.959Z,16.04
2022-10-28T06:51:59.958Z,16.12
2022-10-28T06:52:59.975Z,16.01
2022-10-28T06:53:59.973Z,16.04
2022-10-28T06:54:59.983Z,16.01
2022-10-28T06:55:59.998Z,16.15
2022-10-28T06:56:59.999Z,16.01
2022-10-28T06:58:00.013Z,16.01
2022-10-28T06:59:00.016Z,16.09
2022-10-28T07:00:00.020Z,16.09
2022-10-28T07:01:00.039Z,16.13
2022-10-28T07:02:00.272Z,16.13
2022-10-28T07:03:00.553Z,16.23
2022-10-28T07:04:00.060Z,16.16
2022-10-28T07:05:00.071Z,16.28
2022-10-28T07:06:00.177Z,16.20
2022-10-28T07:07:00.085Z,16.23
2022-10-28T07:08:00.088Z,16.24
2022-10-28T07:09:00.117Z,16.24
2022-10-28T07:10:00.149Z,16.31
2022-10-28T07:11:00.125Z,16.42
2022-10-28T07:12:04.805Z,16.50
2022-10-28T07:13:00.133Z,16.50
2022-10-28T07:14:00.147Z,16.57
2022-10-28T07:15:01.364Z,16.60
2022-10-28T07:16:00.163Z,16.68
2022-10-28T07:17:01.173Z,16.78
2022-10-28T07:18:00.202Z,16.78
2022-10-28T07:19:00.178Z,16.89
2022-10-28T07:20:00.195Z,17.02
2022-10-28T07:21:00.217Z,17.12
2022-10-28T07:22:00.222Z,17.27
2022-10-28T07:23:00.225Z,17.34
2022-10-28T07:24:00.221Z,17.34
2022-10-28T07:25:00.247Z,17.29
2022-10-28T07:26:00.271Z,17.33
2022-10-28T07:27:00.245Z,17.39
2022-10-28T07:28:00.252Z,17.39
2022-10-28T07:29:00.269Z,17.44
2022-10-28T07:30:00.272Z,17.56
2022-10-28T07:31:00.364Z,17.64
2022-10-28T07:36:34.533Z,19.64
2022-10-28T07:39:12.168Z,19.62
2022-10-28T09:02:00.410Z,19.18
2022-10-28T09:03:00.397Z,19.24
2022-10-28T09:04:00.405Z,19.33
2022-10-28T09:05:00.410Z,19.29
2022-10-28T09:06:00.421Z,19.41
2022-10-28T09:07:00.426Z,19.54
2022-10-28T09:08:00.435Z,19.66
2022-10-28T09:09:00.441Z,19.67
2022-10-28T09:10:00.454Z,19.86
2022-10-28T09:11:00.470Z,20.19
2022-10-28T09:12:00.473Z,20.59
2022-10-28T10:17:25.933Z,30.68
2022-10-28T10:18:25.941Z,30.55
2022-10-28T10:19:29.582Z,30.47
2022-10-28T10:20:25.974Z,30.30
2022-10-28T10:21:25.983Z,30.24
2022-10-28T10:22:26.006Z,30.44
2022-10-28T10:23:26.072Z,30.39
2022-10-28T10:24:26.043Z,30.57
2022-10-28T10:25:26.265Z,30.63
2022-10-28T10:28:51.951Z,31.14
2022-10-28T10:29:52.787Z,31.12
2022-10-28T10:30:51.995Z,31.15
2022-10-28T10:31:52.009Z,31.21
2022-10-28T10:35:18.410Z,31.09
2022-10-28T10:36:18.395Z,31.07
2022-10-28T10:37:18.416Z,30.99
2022-10-28T10:46:24.383Z,30.08
2022-10-28T10:47:24.392Z,29.97
2022-10-28T10:48:24.409Z,29.75
2022-10-28T10:49:24.437Z,29.51
2022-10-28T10:50:24.511Z,29.32
2022-10-28T10:51:24.467Z,29.01
2022-10-28T10:52:24.494Z,28.82
2022-10-28T10:53:24.515Z,28.48
2022-10-28T10:54:24.529Z,28.25
2022-10-28T10:55:24.548Z,28.14
2022-10-28T10:56:24.558Z,28.07
2022-10-28T10:57:24.584Z,27.98
2022-10-28T10:58:24.593Z,27.96
2022-10-28T10:59:24.617Z,27.89
2022-10-28T11:00:24.634Z,27.80
2022-10-28T11:01:24.735Z,27.52
2022-10-28T11:03:52.379Z,27.35
2022-10-28T11:04:52.329Z,27.21
2022-10-28T11:10:44.123Z,26.78
2022-10-28T11:11:44.114Z,26.88
2022-10-28T11:12:44.133Z,27.02
2022-10-28T11:13:46.101Z,27.30
2022-10-28T11:14:44.172Z,27.64
2022-10-28T11:15:44.179Z,28.07
2022-10-28T11:16:44.205Z,28.37
2022-10-28T11:17:44.220Z,28.67
2022-10-28T11:18:44.233Z,28.91
2022-10-28T11:19:44.253Z,29.20
2022-10-28T11:20:44.273Z,29.50
2022-10-28T11:27:36.844Z,29.45
2022-10-28T11:28:36.846Z,29.34
2022-10-28T11:30:19.414Z,29.26
2022-10-28T11:31:20.447Z,29.14
2022-10-28T11:43:21.999Z,29.19
2022-10-28T11:44:21.997Z,29.08
2022-10-28T11:45:22.006Z,28.84
2022-10-28T11:46:22.031Z,28.74
2022-10-28T11:47:22.049Z,28.72
2022-10-28T11:48:22.068Z,28.75
2022-10-28T11:49:22.075Z,28.72
2022-10-28T11:50:22.101Z,28.79
2022-10-28T11:51:22.117Z,28.89
2022-10-28T11:52:22.132Z,29.01
2022-10-28T11:53:22.150Z,29.16
2022-10-28T11:55:04.717Z,29.29
2022-10-28T11:56:04.743Z,29.42
2022-10-28T12:05:20.739Z,29.17
2022-10-28T12:06:20.732Z,28.97
2022-10-28T12:07:20.746Z,28.81
2022-10-28T12:08:20.766Z,28.75
2022-10-28T12:09:20.791Z,28.79
2022-10-28T12:10:20.810Z,28.79
2022-10-28T12:11:20.824Z,28.84
2022-10-28T12:12:20.838Z,28.79
2022-10-28T12:13:20.855Z,28.86
2022-10-28T12:14:20.883Z,29.12
2022-10-28T12:15:20.896Z,29.16
2022-10-28T12:16:20.925Z,29.24
2022-10-28T12:17:20.933Z,29.29
2022-10-28T12:18:20.954Z,29.50
2022-10-28T12:22:31.963Z,30.00
2022-10-28T12:23:31.969Z,30.09
2022-10-28T12:24:32.041Z,30.19
2022-10-28T12:25:32.003Z,30.19
2022-10-28T12:26:32.023Z,30.21
2022-10-28T12:27:32.037Z,30.27
2022-10-28T12:28:32.057Z,30.31
2022-10-28T12:29:32.084Z,30.37
2022-10-28T13:04:17.999Z,28.48
2022-10-28T13:05:18.002Z,28.47
2022-10-28T13:06:18.020Z,28.33
2022-10-28T13:07:18.030Z,28.30
2022-10-28T13:08:18.051Z,28.27
2022-10-28T13:09:18.070Z,28.25
2022-10-28T13:10:18.185Z,28.20
2022-10-28T13:24:03.984Z,27.80
2022-10-28T13:25:03.980Z,27.78
2022-10-28T13:26:04.006Z,27.74
2022-10-28T13:27:04.013Z,27.74
2022-10-28T13:28:04.634Z,27.71
2022-10-28T13:33:13.256Z,27.42
2022-10-28T13:40:15.844Z,27.17
2022-10-28T13:41:15.840Z,27.12
2022-10-28T13:42:15.849Z,27.10
2022-10-28T13:44:23.464Z,26.96
2022-10-28T13:45:23.482Z,26.99
2022-10-28T13:46:23.503Z,26.97
2022-10-28T13:47:23.521Z,26.97
2022-10-28T13:48:23.527Z,26.97
2022-10-28T13:49:23.545Z,26.92
2022-10-28T13:50:23.568Z,26.88
2022-10-28T13:51:23.581Z,26.88
2022-10-28T13:52:23.590Z,26.78
2022-10-28T13:53:23.614Z,26.74
2022-10-28T13:54:23.625Z,26.70
2022-10-28T13:55:23.656Z,26.65
2022-10-28T13:56:23.653Z,26.53
2022-10-28T13:57:23.754Z,26.52
2022-10-28T13:58:23.682Z,26.52
2022-10-28T13:59:23.697Z,26.43
2022-10-28T14:00:23.889Z,26.37
2022-10-28T14:01:23.872Z,26.41
2022-10-28T14:02:39.416Z,26.36
2022-10-28T14:03:23.995Z,26.28
2022-10-28T14:04:23.799Z,26.29
2022-10-28T14:05:23.786Z,26.28
2022-10-28T14:06:23.851Z,26.22
2022-10-28T14:07:23.822Z,26.18
2022-10-28T14:08:23.836Z,26.25
2022-10-28T14:09:23.854Z,26.23
2022-10-28T14:10:23.866Z,26.18
2022-10-28T14:11:23.902Z,26.07
2022-10-28T14:12:23.900Z,26.03
2022-10-28T14:13:23.905Z,26.09
2022-10-28T14:14:23.925Z,25.96
2022-10-28T14:15:23.932Z,25.96
2022-10-28T14:16:23.947Z,25.88
2022-10-28T14:17:23.969Z,25.87
2022-10-28T14:19:23.990Z,25.81
2022-10-28T14:20:24.010Z,25.75
2022-10-28T14:21:24.027Z,25.75
2022-10-28T14:22:24.096Z,25.77
2022-10-28T14:23:24.048Z,25.63
2022-10-28T14:24:24.067Z,25.60
2022-10-28T14:25:24.075Z,25.63
2022-10-28T14:26:24.091Z,25.62
2022-10-28T14:27:24.131Z,25.51
2022-10-28T14:28:24.116Z,25.60
2022-10-28T14:29:24.146Z,25.53
2022-10-28T14:30:24.179Z,25.46
2022-10-28T14:31:24.161Z,25.46
2022-10-28T14:32:24.175Z,25.40
2022-10-28T14:33:24.191Z,25.44
2022-10-28T14:34:24.202Z,25.31
2022-10-28T14:35:24.223Z,25.36
2022-10-28T14:36:24.236Z,25.28
2022-10-28T14:37:27.367Z,25.25
2022-10-28T14:38:24.265Z,25.22
2022-10-28T14:39:24.277Z,25.22
2022-10-28T14:40:24.300Z,25.16
2022-10-28T14:41:24.387Z,25.16
2022-10-28T14:42:24.319Z,25.10
2022-10-28T14:43:27.842Z,25.11
2022-10-28T14:44:24.339Z,25.04
2022-10-28T14:45:24.353Z,24.95
2022-10-28T14:46:24.369Z,24.98
2022-10-28T14:47:24.382Z,24.88
2022-10-28T14:48:24.405Z,24.88
2022-10-28T14:49:24.409Z,24.78
2022-10-28T14:50:24.428Z,24.76
2022-10-28T14:51:24.440Z,24.78
2022-10-28T14:52:24.456Z,24.73
2022-10-28T14:53:24.481Z,24.65
2022-10-28T14:54:24.474Z,24.63
2022-10-28T14:55:24.497Z,24.66
2022-10-28T14:56:24.507Z,24.65
2022-10-28T14:57:27.142Z,24.58
2022-10-28T14:58:24.541Z,24.53
2022-10-28T14:59:24.579Z,24.55
2022-10-28T15:00:24.565Z,24.42
2022-10-28T15:01:24.673Z,24.45
2022-10-28T15:02:24.726Z,24.42
2022-10-28T15:03:24.603Z,24.42
2022-10-28T15:04:24.616Z,24.36
2022-10-28T15:05:24.626Z,24.32
2022-10-28T15:06:24.632Z,24.35
2022-10-28T15:07:24.655Z,24.30
2022-10-28T15:08:24.666Z,24.29
2022-10-28T15:09:24.674Z,24.29
2022-10-28T15:10:24.694Z,24.26
2022-10-28T15:11:24.713Z,24.18
2022-10-28T15:12:24.718Z,24.16
2022-10-28T15:13:24.725Z,24.18
2022-10-28T15:14:24.758Z,24.14
2022-10-28T15:15:24.777Z,24.11
2022-10-28T15:16:24.769Z,24.06
2022-10-28T15:17:24.776Z,24.02
2022-10-28T15:18:24.791Z,24.05
2022-10-28T15:19:24.809Z,24.05
2022-10-28T15:20:24.820Z,23.98
2022-10-28T15:21:24.833Z,23.95
2022-10-28T15:22:24.839Z,23.88
2022-10-28T15:23:24.906Z,23.93
2022-10-28T15:24:24.864Z,23.77
2022-10-28T15:25:24.886Z,23.83
2022-10-28T15:26:24.898Z,23.78
2022-10-28T15:27:24.902Z,23.71
2022-10-28T15:28:24.925Z,23.73
2022-10-28T15:29:24.929Z,23.63
2022-10-28T15:30:24.942Z,23.71
2022-10-28T15:31:24.975Z,23.69
2022-10-28T15:32:24.978Z,23.66
2022-10-28T15:33:24.985Z,23.56
2022-10-28T15:34:24.994Z,23.48
2022-10-28T15:35:25.012Z,23.50
2022-10-28T15:36:25.070Z,23.51
2022-10-28T15:37:25.031Z,23.48
2022-10-28T15:38:25.042Z,23.46
2022-10-28T15:39:25.063Z,23.41
2022-10-28T15:40:25.066Z,23.41
2022-10-28T15:41:25.087Z,23.36
2022-10-28T15:42:25.157Z,23.28
2022-10-28T15:43:25.105Z,23.28
2022-10-28T15:44:25.123Z,23.34
2022-10-28T15:45:25.136Z,23.36
2022-10-28T15:46:25.150Z,23.25
2022-10-28T15:47:25.191Z,23.36
2022-10-28T15:48:25.173Z,23.25
2022-10-28T15:49:25.179Z,23.23
2022-10-28T15:50:25.189Z,23.24
2022-10-28T15:51:25.210Z,23.21
2022-10-28T15:52:25.217Z,23.15
2022-10-28T15:53:25.236Z,23.21
2022-10-28T15:54:25.245Z,23.17
2022-10-28T15:55:35.672Z,23.06
2022-10-28T15:56:25.281Z,23.03
2022-10-28T15:57:25.280Z,23.08
2022-10-28T15:58:25.296Z,23.08
2022-10-28T15:59:25.306Z,23.03
2022-10-28T16:00:25.312Z,22.96
2022-10-28T16:01:25.395Z,22.81
2022-10-28T16:02:25.492Z,22.91
2022-10-28T16:03:25.476Z,22.85
2022-10-28T16:04:25.373Z,22.84
2022-10-28T16:05:27.675Z,22.83
2022-10-28T16:06:25.384Z,22.80
2022-10-28T16:07:25.403Z,22.73
2022-10-28T16:08:25.415Z,22.72
2022-10-28T16:09:25.429Z,22.72
2022-10-28T16:10:25.437Z,22.63
2022-10-28T16:11:25.453Z,22.66
2022-10-28T16:12:25.454Z,22.57
2022-10-28T16:13:25.476Z,22.60
2022-10-28T16:14:25.485Z,22.54
2022-10-28T16:15:25.492Z,22.51
2022-10-28T16:16:25.501Z,22.53
2022-10-28T16:17:25.516Z,22.43
2022-10-28T16:18:25.537Z,22.45
2022-10-28T16:19:25.566Z,22.50
2022-10-28T16:20:25.620Z,22.45
2022-10-28T16:21:25.565Z,22.43
2022-10-28T16:22:25.573Z,22.41
2022-10-28T16:23:25.588Z,22.30
2022-10-28T16:24:25.606Z,22.35
2022-10-28T16:25:25.612Z,22.39
2022-10-28T16:26:25.629Z,22.35
2022-10-28T16:27:25.640Z,22.32
2022-10-28T16:28:25.653Z,22.32
2022-10-28T16:29:25.664Z,22.41
2022-10-28T16:30:25.677Z,22.35
2022-10-28T16:31:25.687Z,22.28
2022-10-28T16:32:25.694Z,22.29
2022-10-28T16:33:25.703Z,22.29
2022-10-28T16:34:25.722Z,22.25
2022-10-28T16:35:25.755Z,22.18
2022-10-28T16:36:25.746Z,22.17
2022-10-28T16:37:25.758Z,22.25
2022-10-28T16:38:25.769Z,22.25
2022-10-28T16:39:25.772Z,22.25
2022-10-28T16:41:25.802Z,22.18
2022-10-28T16:42:25.813Z,22.30
2022-10-28T16:43:25.819Z,22.26
2022-10-28T16:44:25.833Z,22.23
2022-10-28T16:45:25.848Z,22.26
2022-10-28T16:46:25.861Z,22.18
2022-10-28T16:47:25.875Z,22.15
2022-10-28T16:48:25.875Z,22.20
2022-10-28T16:49:25.889Z,22.13
2022-10-28T16:50:25.905Z,22.18
2022-10-28T16:51:25.939Z,22.20
2022-10-28T16:52:25.922Z,22.18
2022-10-28T16:53:25.941Z,22.17
2022-10-28T16:54:25.950Z,22.13
2022-10-28T16:55:25.963Z,22.20
2022-10-28T16:56:25.974Z,22.23
2022-10-28T16:57:26.078Z,22.20
2022-10-28T16:58:26.929Z,22.18
2022-10-28T16:59:26.001Z,22.11
2022-10-28T17:00:26.011Z,22.08
2022-10-28T17:01:26.130Z,22.13
2022-10-28T17:02:26.175Z,22.11
2022-10-28T17:03:26.050Z,22.06
2022-10-28T17:04:26.056Z,22.07
2022-10-28T17:05:26.069Z,22.06
2022-10-28T17:06:26.077Z,21.98
2022-10-28T17:07:26.117Z,22.00
2022-10-28T17:08:49.001Z,22.02
2022-10-28T17:09:26.118Z,21.95
2022-10-28T17:10:26.125Z,21.92
2022-10-28T17:11:26.187Z,21.92
2022-10-28T17:12:26.157Z,21.89
2022-10-28T17:13:26.165Z,21.77
2022-10-28T17:14:26.175Z,21.77
2022-10-28T17:15:26.187Z,21.82
2022-10-28T17:16:26.189Z,21.83
2022-10-28T17:17:26.201Z,21.72
2022-10-28T17:18:26.213Z,21.77
2022-10-28T17:19:26.224Z,21.77
2022-10-28T17:20:26.244Z,21.67
2022-10-28T17:21:26.247Z,21.69
2022-10-28T17:22:26.263Z,21.60
2022-10-28T17:23:26.291Z,21.66
2022-10-28T17:24:26.278Z,21.62
2022-10-28T17:25:26.409Z,21.69
2022-10-28T17:26:26.306Z,21.60
2022-10-28T17:27:26.311Z,21.52
2022-10-28T17:28:26.324Z,21.58
2022-10-28T17:29:26.342Z,21.50
2022-10-28T17:30:26.424Z,21.64
2022-10-28T17:31:26.357Z,21.61
2022-10-28T17:32:26.375Z,21.61
2022-10-28T17:33:26.387Z,21.60
2022-10-28T17:35:13.946Z,21.60
2022-10-28T17:36:13.963Z,21.57
2022-10-28T17:37:13.975Z,21.54
2022-10-28T17:38:13.989Z,21.54
2022-10-28T17:39:17.867Z,21.45
2022-10-28T17:40:14.001Z,21.50
2022-10-28T17:41:14.011Z,21.43
2022-10-28T17:42:14.021Z,21.46
2022-10-28T17:43:14.034Z,21.48
2022-10-28T17:44:14.048Z,21.35